createdAt,value
2018-07-30T00:01:38.328Z,99.90
2018-07-30T00:04:09.803Z,99.90
2018-07-30T00:06:39.700Z,99.90
2018-07-30T00:09:10.638Z,99.90
2018-07-30T00:11:40.722Z,99.90
2018-07-30T00:14:13.947Z,99.90
2018-07-30T00:16:44.466Z,99.90
2018-07-30T00:19:14.213Z,99.90
2018-07-30T00:21:44.008Z,99.90
2018-07-30T00:24:13.785Z,99.90
2018-07-30T00:26:43.565Z,99.90
2018-07-30T00:29:13.400Z,99.90
2018-07-30T00:31:43.841Z,99.90
2018-07-30T00:34:13.626Z,99.90
2018-07-30T00:36:44.096Z,99.90
2018-07-30T00:41:43.173Z,99.90
2018-07-30T00:44:12.956Z,99.90
2018-07-30T00:46:42.790Z,99.90
2018-07-30T00:49:12.573Z,99.90
2018-07-30T00:51:42.441Z,99.90
2018-07-30T00:54:12.271Z,99.90
2018-07-30T00:56:42.107Z,99.90
2018-07-30T00:59:12.448Z,99.90
2018-07-30T01:01:42.226Z,99.90
2018-07-30T01:04:11.996Z,99.90
2018-07-30T01:06:41.804Z,99.90
2018-07-30T01:09:11.845Z,99.90
2018-07-30T01:11:42.412Z,99.90
2018-07-30T01:14:15.914Z,99.90
2018-07-30T01:16:46.332Z,99.90
2018-07-30T01:19:16.090Z,99.90
2018-07-30T01:21:46.533Z,99.90
2018-07-30T01:24:16.317Z,99.90
2018-07-30T01:26:46.841Z,99.90
2018-07-30T01:29:16.585Z,99.90
2018-07-30T01:31:47.112Z,99.90
2018-07-30T01:34:17.681Z,99.90
2018-07-30T01:36:48.224Z,99.90
2018-07-30T01:39:18.436Z,99.90
2018-07-30T01:41:48.278Z,99.90
2018-07-30T01:44:18.841Z,99.90
2018-07-30T01:46:48.971Z,99.90
2018-07-30T01:49:18.727Z,99.90
2018-07-30T01:51:48.530Z,99.90
2018-07-30T01:54:18.343Z,99.90
2018-07-30T01:56:48.066Z,99.90
2018-07-30T01:59:18.592Z,99.90
2018-07-30T02:01:48.357Z,99.90
2018-07-30T02:04:18.448Z,99.90
2018-07-30T02:06:48.891Z,99.90
2018-07-30T02:09:19.012Z,99.90
2018-07-30T02:11:48.810Z,99.90
2018-07-30T02:14:19.843Z,99.90
2018-07-30T02:16:50.261Z,99.90
2018-07-30T02:19:21.028Z,99.90
2018-07-30T02:21:50.841Z,99.90
2018-07-30T02:24:20.604Z,99.90
2018-07-30T02:26:50.992Z,99.90
2018-07-30T02:29:21.573Z,99.90
2018-07-30T02:31:51.341Z,99.90
2018-07-30T02:34:21.092Z,99.90
2018-07-30T02:36:51.428Z,99.90
2018-07-30T02:39:21.232Z,99.90
2018-07-30T02:41:51.048Z,99.90
2018-07-30T02:44:21.524Z,99.90
2018-07-30T02:46:51.342Z,99.90
2018-07-30T02:49:21.211Z,99.90
2018-07-30T02:51:52.289Z,99.90
2018-07-30T02:54:22.828Z,99.90
2018-07-30T02:56:52.954Z,99.90
2018-07-30T02:59:23.947Z,99.90
2018-07-30T03:01:53.732Z,99.90
2018-07-30T03:04:24.189Z,99.90
2018-07-30T03:06:53.975Z,99.90
2018-07-30T03:09:23.775Z,99.90
2018-07-30T03:11:54.160Z,99.90
2018-07-30T03:14:25.387Z,99.90
2018-07-30T03:16:55.153Z,99.90
2018-07-30T03:19:24.934Z,99.90
2018-07-30T03:21:54.733Z,99.90
2018-07-30T03:26:54.652Z,99.90
2018-07-30T03:29:25.089Z,99.90
2018-07-30T03:31:55.841Z,99.90
2018-07-30T03:34:26.962Z,99.90
2018-07-30T03:36:56.732Z,99.90
2018-07-30T03:39:26.543Z,99.90
2018-07-30T03:41:56.400Z,99.90
2018-07-30T03:44:26.592Z,99.90
2018-07-30T03:46:57.208Z,99.90
2018-07-30T03:49:27.089Z,99.90
2018-07-30T03:51:56.862Z,99.90
2018-07-30T03:54:26.644Z,99.90
2018-07-30T03:56:56.459Z,99.90
2018-07-30T03:59:26.233Z,99.90
2018-07-30T04:01:56.411Z,99.90
2018-07-30T04:04:26.241Z,99.90
2018-07-30T04:06:56.018Z,99.90
2018-07-30T04:09:25.782Z,99.90
2018-07-30T04:11:55.562Z,99.90
2018-07-30T04:14:25.355Z,99.90
2018-07-30T04:16:55.116Z,99.90
2018-07-30T04:19:24.880Z,99.90
2018-07-30T04:21:55.732Z,99.90
2018-07-30T04:24:26.018Z,99.90
2018-07-30T04:26:55.805Z,99.90
2018-07-30T04:29:25.633Z,99.90
2018-07-30T04:31:55.442Z,99.90
2018-07-30T04:34:25.280Z,99.90
2018-07-30T04:36:55.964Z,99.90
2018-07-30T04:39:25.720Z,99.90
2018-07-30T04:41:56.296Z,99.90
2018-07-30T04:44:26.714Z,99.90
2018-07-30T04:46:56.477Z,99.90
2018-07-30T04:49:29.796Z,99.90
2018-07-30T04:51:59.560Z,99.90
2018-07-30T04:54:30.205Z,99.90
2018-07-30T04:57:00.026Z,99.90
2018-07-30T04:59:29.731Z,99.90
2018-07-30T05:01:59.514Z,99.90
2018-07-30T05:04:30.116Z,99.90
2018-07-30T05:07:00.676Z,99.90
2018-07-30T05:09:30.496Z,99.90
2018-07-30T05:12:01.325Z,99.90
2018-07-30T05:14:31.119Z,99.90
2018-07-30T05:17:01.677Z,99.90
2018-07-30T05:19:31.502Z,99.90
2018-07-30T05:22:01.248Z,99.90
2018-07-30T05:27:01.133Z,99.90
2018-07-30T05:29:31.217Z,99.90
2018-07-30T05:32:01.792Z,99.90
2018-07-30T05:34:31.589Z,99.90
2018-07-30T05:37:01.377Z,99.90
2018-07-30T05:39:31.224Z,99.90
2018-07-30T05:42:01.154Z,99.90
2018-07-30T05:44:30.903Z,99.90
2018-07-30T05:47:01.579Z,99.90
2018-07-30T05:52:00.553Z,99.90
2018-07-30T05:54:31.112Z,99.90
2018-07-30T05:57:06.345Z,99.90
2018-07-30T05:59:36.186Z,99.90
2018-07-30T06:02:06.870Z,99.90
2018-07-30T06:04:36.631Z,99.90
2018-07-30T06:07:07.067Z,99.90
2018-07-30T06:09:37.449Z,99.90
2018-07-30T06:12:07.252Z,99.90
2018-07-30T06:17:07.218Z,99.90
2018-07-30T06:19:37.078Z,99.90
2018-07-30T06:22:08.242Z,99.90
2018-07-30T06:24:38.691Z,99.90
2018-07-30T06:27:09.252Z,99.90
2018-07-30T06:29:39.866Z,99.90
2018-07-30T06:32:09.704Z,99.90
2018-07-30T06:34:39.472Z,99.90
2018-07-30T06:37:09.277Z,99.90
2018-07-30T06:39:39.068Z,99.90
2018-07-30T06:42:08.834Z,99.90
2018-07-30T06:44:39.304Z,99.90
2018-07-30T06:47:09.862Z,99.90
2018-07-30T06:49:40.443Z,99.90
2018-07-30T06:52:10.433Z,99.90
2018-07-30T06:54:41.179Z,99.90
2018-07-30T06:57:10.993Z,99.90
2018-07-30T06:59:41.597Z,99.90
2018-07-30T07:02:12.421Z,99.90
2018-07-30T07:04:42.201Z,99.90
2018-07-30T07:07:12.015Z,99.90
2018-07-30T07:09:41.835Z,99.90
2018-07-30T07:12:11.674Z,99.90
2018-07-30T07:14:42.275Z,99.90
2018-07-30T07:19:41.448Z,99.90
2018-07-30T07:22:11.274Z,99.90
2018-07-30T07:24:42.301Z,99.90
2018-07-30T07:27:12.636Z,99.90
2018-07-30T07:29:43.214Z,99.90
2018-07-30T07:32:13.066Z,99.90
2018-07-30T07:34:42.892Z,99.90
2018-07-30T07:37:12.709Z,99.90
2018-07-30T07:39:42.549Z,99.90
2018-07-30T07:42:12.470Z,99.90
2018-07-30T07:44:42.270Z,99.90
2018-07-30T07:47:12.829Z,99.90
2018-07-30T07:49:43.720Z,99.90
2018-07-30T07:52:14.291Z,99.90
2018-07-30T07:54:44.059Z,99.90
2018-07-30T07:57:13.864Z,99.90
2018-07-30T07:59:43.652Z,99.90
2018-07-30T08:02:13.464Z,99.90
2018-07-30T08:04:44.061Z,99.90
2018-07-30T08:07:14.460Z,99.90
2018-07-30T08:09:51.869Z,99.90
2018-07-30T08:12:22.285Z,99.90
2018-07-30T08:14:52.045Z,99.90
2018-07-30T08:17:22.522Z,99.90
2018-07-30T08:19:52.979Z,99.90
2018-07-30T08:22:23.091Z,99.90
2018-07-30T08:24:52.985Z,99.90
2018-07-30T08:27:25.358Z,99.90
2018-07-30T08:29:55.332Z,99.90
2018-07-30T08:32:25.909Z,99.90
2018-07-30T08:34:55.701Z,99.90
2018-07-30T08:37:26.925Z,99.90
2018-07-30T08:39:56.698Z,99.90
2018-07-30T08:42:26.537Z,99.90
2018-07-30T08:44:56.385Z,99.90
2018-07-30T08:49:55.438Z,99.00
2018-07-30T08:52:25.217Z,97.70
2018-07-30T08:54:55.623Z,97.40
2018-07-30T08:59:54.764Z,99.10
2018-07-30T09:02:24.632Z,97.90
2018-07-30T09:04:54.390Z,95.80
2018-07-30T09:07:24.233Z,95.40
2018-07-30T09:09:54.031Z,94.40
2018-07-30T09:12:23.901Z,93.00
2018-07-30T09:14:54.615Z,92.20
2018-07-30T09:17:25.221Z,89.40
2018-07-30T09:19:56.828Z,88.30
2018-07-30T09:22:27.324Z,88.40
2018-07-30T09:24:57.976Z,88.50
2018-07-30T09:27:27.751Z,85.10
2018-07-30T09:29:57.570Z,82.40
2018-07-30T09:34:57.295Z,74.50
2018-07-30T09:37:27.433Z,69.30
2018-07-30T09:39:57.209Z,68.50
2018-07-30T09:42:28.128Z,68.90
2018-07-30T09:44:57.974Z,68.70
2018-07-30T09:47:28.328Z,66.60
2018-07-30T09:49:58.750Z,62.70
2018-07-30T09:52:29.285Z,59.40
2018-07-30T09:54:59.056Z,57.00
2018-07-30T09:57:29.699Z,55.90
2018-07-30T09:59:59.579Z,53.90
2018-07-30T10:02:29.382Z,52.00
2018-07-30T10:05:00.196Z,52.60
2018-07-30T10:07:29.992Z,50.40
2018-07-30T10:09:59.892Z,49.90
2018-07-30T10:12:29.733Z,49.30
2018-07-30T10:14:59.628Z,48.80
2018-07-30T10:17:29.500Z,49.10
2018-07-30T10:19:59.277Z,48.00
2018-07-30T10:22:29.117Z,47.30
2018-07-30T10:24:58.946Z,46.50
2018-07-30T10:27:28.745Z,47.40
2018-07-30T10:29:58.566Z,48.40
2018-07-30T10:32:28.427Z,48.00
2018-07-30T10:34:59.469Z,48.40
2018-07-30T10:37:29.749Z,48.30
2018-07-30T10:39:59.677Z,47.20
2018-07-30T10:42:30.070Z,47.80
2018-07-30T10:45:00.394Z,48.30
2018-07-30T10:47:32.448Z,48.60
2018-07-30T10:50:02.737Z,48.30
2018-07-30T10:52:33.770Z,47.50
2018-07-30T10:57:40.846Z,46.60
2018-07-30T11:00:10.680Z,46.80
2018-07-30T11:02:41.168Z,46.70
2018-07-30T11:05:11.012Z,46.90
2018-07-30T11:07:41.173Z,47.50
2018-07-30T11:10:11.054Z,45.60
2018-07-30T11:12:41.316Z,47.80
2018-07-30T11:15:11.249Z,47.40
2018-07-30T11:17:41.061Z,47.00
2018-07-30T11:20:10.889Z,46.50
2018-07-30T11:22:40.701Z,46.80
2018-07-30T11:25:10.550Z,47.30
2018-07-30T11:27:41.016Z,47.10
2018-07-30T11:30:10.838Z,46.50
2018-07-30T11:32:41.877Z,47.20
2018-07-30T11:35:13.146Z,46.00
2018-07-30T11:37:43.035Z,45.50
2018-07-30T11:42:42.804Z,46.20
2018-07-30T11:45:13.438Z,45.50
2018-07-30T11:47:43.239Z,46.10
2018-07-30T11:50:13.020Z,46.80
2018-07-30T11:52:43.624Z,46.40
2018-07-30T11:55:14.035Z,45.70
2018-07-30T11:57:44.163Z,45.20
2018-07-30T12:00:14.795Z,45.20
2018-07-30T12:02:44.631Z,43.80
2018-07-30T12:05:14.455Z,43.70
2018-07-30T12:07:44.448Z,41.90
2018-07-30T12:10:14.353Z,43.90
2018-07-30T12:12:44.193Z,45.40
2018-07-30T12:15:14.012Z,44.00
2018-07-30T12:17:43.905Z,44.10
2018-07-30T12:20:13.754Z,44.10
2018-07-30T12:22:44.289Z,44.50
2018-07-30T12:25:14.085Z,46.10
2018-07-30T12:27:43.879Z,47.70
2018-07-30T12:30:13.791Z,48.70
2018-07-30T12:32:43.663Z,49.40
2018-07-30T12:35:13.545Z,50.60
2018-07-30T12:37:43.740Z,50.40
2018-07-30T12:40:13.547Z,51.40
2018-07-30T12:45:12.630Z,51.10
2018-07-30T12:47:42.540Z,51.80
2018-07-30T12:50:12.312Z,52.40
2018-07-30T12:52:42.081Z,53.00
2018-07-30T12:55:11.900Z,52.70
2018-07-30T12:57:42.041Z,53.00
2018-07-30T13:00:11.845Z,53.70
2018-07-30T13:02:41.670Z,53.60
2018-07-30T13:05:11.477Z,53.50
2018-07-30T13:07:41.277Z,53.70
2018-07-30T13:10:11.085Z,54.30
2018-07-30T13:12:40.962Z,54.10
2018-07-30T13:15:11.197Z,53.90
2018-07-30T13:17:41.003Z,53.30
2018-07-30T13:20:11.474Z,54.00
2018-07-30T13:22:41.439Z,54.90
2018-07-30T13:25:11.311Z,55.10
2018-07-30T13:27:41.103Z,54.80
2018-07-30T13:30:10.937Z,54.80
2018-07-30T13:32:40.736Z,54.40
2018-07-30T13:35:10.547Z,54.70
2018-07-30T13:37:40.340Z,54.50
2018-07-30T13:40:10.216Z,55.30
2018-07-30T13:42:40.177Z,55.00
2018-07-30T13:45:12.009Z,55.70
2018-07-30T13:47:41.849Z,55.20
2018-07-30T13:50:11.669Z,54.40
2018-07-30T13:52:41.528Z,52.90
2018-07-30T13:55:11.452Z,54.70
2018-07-30T13:57:41.242Z,53.90
2018-07-30T14:00:11.820Z,54.30
2018-07-30T14:02:41.650Z,54.40
2018-07-30T14:05:11.466Z,53.80
2018-07-30T14:07:41.297Z,54.30
2018-07-30T14:10:11.249Z,54.80
2018-07-30T14:12:41.063Z,53.00
2018-07-30T14:15:10.909Z,53.00
2018-07-30T14:17:40.732Z,54.20
2018-07-30T14:20:10.642Z,54.40
2018-07-30T14:22:40.441Z,55.10
2018-07-30T14:25:10.300Z,55.00
2018-07-30T14:27:40.243Z,55.00
2018-07-30T14:30:10.760Z,55.80
2018-07-30T14:32:40.638Z,55.50
2018-07-30T14:35:11.113Z,55.80
2018-07-30T14:37:40.918Z,55.90
2018-07-30T14:40:13.568Z,56.40
2018-07-30T14:42:43.362Z,56.60
2018-07-30T14:45:13.169Z,56.20
2018-07-30T14:47:42.994Z,56.80
2018-07-30T14:50:12.874Z,56.70
2018-07-30T14:52:42.831Z,56.50
2018-07-30T14:55:15.769Z,56.80
2018-07-30T14:57:46.017Z,57.50
2018-07-30T15:00:15.851Z,56.50
2018-07-30T15:02:45.643Z,57.20
2018-07-30T15:05:22.900Z,58.00
2018-07-30T15:07:57.686Z,57.70
2018-07-30T15:10:30.541Z,57.40
2018-07-30T15:13:00.925Z,58.10
2018-07-30T15:15:31.825Z,56.80
2018-07-30T15:18:02.143Z,58.50
2018-07-30T15:23:01.659Z,57.30
2018-07-30T15:25:31.768Z,57.00
2018-07-30T15:28:03.033Z,57.10
2018-07-30T15:30:32.953Z,57.90
2018-07-30T15:33:02.900Z,57.60
2018-07-30T15:35:32.786Z,59.00
2018-07-30T15:38:04.278Z,58.90
2018-07-30T15:40:34.167Z,57.10
2018-07-30T15:43:03.989Z,56.90
2018-07-30T15:45:33.825Z,58.00
2018-07-30T15:48:03.712Z,57.00
2018-07-30T15:50:33.634Z,58.40
2018-07-30T15:53:03.569Z,57.60
2018-07-30T15:55:33.433Z,57.10
2018-07-30T15:58:03.296Z,56.50
2018-07-30T16:00:33.757Z,58.30
2018-07-30T16:03:03.663Z,58.80
2018-07-30T16:05:34.097Z,58.50
2018-07-30T16:08:05.505Z,58.10
2018-07-30T16:10:35.369Z,59.70
2018-07-30T16:15:35.990Z,59.60
2018-07-30T16:18:05.846Z,59.70
2018-07-30T16:20:37.192Z,60.50
2018-07-30T16:23:07.213Z,58.40
2018-07-30T16:25:37.912Z,58.10
2018-07-30T16:28:07.815Z,57.60
2018-07-30T16:30:37.699Z,59.90
2018-07-30T16:33:07.809Z,57.70
2018-07-30T16:35:37.623Z,58.30
2018-07-30T16:38:07.445Z,59.30
2018-07-30T16:40:37.671Z,59.50
2018-07-30T16:43:07.656Z,60.50
2018-07-30T16:48:08.046Z,60.90
2018-07-30T16:50:38.341Z,58.30
2018-07-30T16:55:44.596Z,58.90
2018-07-30T16:58:14.544Z,58.90
2018-07-30T17:00:44.760Z,59.20
2018-07-30T17:03:14.561Z,59.90
2018-07-30T17:05:44.457Z,60.70
2018-07-30T17:08:14.322Z,61.80
2018-07-30T17:10:44.210Z,62.50
2018-07-30T17:13:14.094Z,60.90
2018-07-30T17:15:43.930Z,61.90
2018-07-30T17:18:14.223Z,60.10
2018-07-30T17:20:46.938Z,61.90
2018-07-30T17:23:16.756Z,60.10
2018-07-30T17:25:46.727Z,61.80
2018-07-30T17:28:17.657Z,61.30
2018-07-30T17:30:48.568Z,60.00
2018-07-30T17:33:20.352Z,62.40
2018-07-30T17:35:50.944Z,61.50
2018-07-30T17:38:20.793Z,59.50
2018-07-30T17:40:53.279Z,59.80
2018-07-30T17:43:23.305Z,60.80
2018-07-30T17:45:53.716Z,61.90
2018-07-30T17:48:24.145Z,60.10
2018-07-30T17:50:54.000Z,60.10
2018-07-30T17:53:23.786Z,61.20
2018-07-30T17:55:54.250Z,60.50
2018-07-30T17:58:25.134Z,59.90
2018-07-30T18:00:55.190Z,61.30
2018-07-30T18:03:25.130Z,61.00
2018-07-30T18:05:55.108Z,60.90
2018-07-30T18:08:24.947Z,60.70
2018-07-30T18:10:55.106Z,60.50
2018-07-30T18:13:24.931Z,62.70
2018-07-30T18:15:54.801Z,61.00
2018-07-30T18:18:24.651Z,62.30
2018-07-30T18:20:55.245Z,61.80
2018-07-30T18:23:25.084Z,63.30
2018-07-30T18:25:54.869Z,65.80
2018-07-30T18:28:24.726Z,65.60
2018-07-30T18:30:54.672Z,66.60
2018-07-30T18:33:24.503Z,65.20
2018-07-30T18:35:54.421Z,67.30
2018-07-30T18:38:24.322Z,68.00
2018-07-30T18:40:54.254Z,69.00
2018-07-30T18:43:24.065Z,69.80
2018-07-30T18:45:54.523Z,71.90
2018-07-30T18:48:24.920Z,71.20
2018-07-30T18:50:54.894Z,72.50
2018-07-30T18:53:24.688Z,71.80
2018-07-30T18:55:54.704Z,73.20
2018-07-30T18:58:24.589Z,72.90
2018-07-30T19:00:55.113Z,73.40
2018-07-30T19:03:26.179Z,74.30
2018-07-30T19:05:56.146Z,75.00
2018-07-30T19:08:32.831Z,75.70
2018-07-30T19:11:03.518Z,76.60
2018-07-30T19:13:36.651Z,77.70
2018-07-30T19:16:07.074Z,78.80
2018-07-30T19:18:37.603Z,79.00
2018-07-30T19:21:08.164Z,80.00
2018-07-30T19:23:41.142Z,81.20
2018-07-30T19:26:12.374Z,82.60
2018-07-30T19:28:42.788Z,81.90
2018-07-30T19:33:42.065Z,83.10
2018-07-30T19:36:12.397Z,81.40
2018-07-30T19:38:42.716Z,81.30
2018-07-30T19:41:13.141Z,82.10
2018-07-30T19:43:44.686Z,82.50
2018-07-30T19:46:14.907Z,82.30
2018-07-30T19:48:44.742Z,83.40
2018-07-30T19:51:14.607Z,83.80
2018-07-30T19:53:44.759Z,84.30
2018-07-30T19:56:14.644Z,85.00
2018-07-30T19:58:44.578Z,85.10
2018-07-30T20:01:14.743Z,85.60
2018-07-30T20:03:45.037Z,86.20
2018-07-30T20:06:15.506Z,86.70
2018-07-30T20:08:45.391Z,88.40
2018-07-30T20:11:15.452Z,88.00
2018-07-30T20:13:45.237Z,88.80
2018-07-30T20:18:44.784Z,87.50
2018-07-30T20:21:15.120Z,85.40
2018-07-30T20:23:45.563Z,86.80
2018-07-30T20:26:15.396Z,86.70
2018-07-30T20:28:45.264Z,87.20
2018-07-30T20:34:01.011Z,85.10
2018-07-30T20:36:31.405Z,87.00
2018-07-30T20:39:01.792Z,89.70
2018-07-30T20:41:32.289Z,90.20
2018-07-30T20:44:03.324Z,90.80
2018-07-30T20:46:33.234Z,90.40
2018-07-30T20:49:03.175Z,90.20
2018-07-30T20:51:34.292Z,90.30
2018-07-30T20:54:05.608Z,90.70
2018-07-30T20:56:36.080Z,90.50
2018-07-30T20:59:06.199Z,90.10
2018-07-30T21:01:36.044Z,89.70
2018-07-30T21:04:07.371Z,90.20
2018-07-30T21:06:37.737Z,90.40
2018-07-30T21:09:09.162Z,90.00
2018-07-30T21:11:39.650Z,90.40
2018-07-30T21:14:09.724Z,90.30
2018-07-30T21:16:39.687Z,90.50
2018-07-30T21:19:09.602Z,90.50
2018-07-30T21:21:39.419Z,90.90
2018-07-30T21:24:09.323Z,90.70
2018-07-30T21:26:39.211Z,91.10
2018-07-30T21:29:09.117Z,90.90
2018-07-30T21:31:39.240Z,91.00
2018-07-30T21:34:09.087Z,91.20
2018-07-30T21:36:39.252Z,91.30
2018-07-30T21:39:11.373Z,91.00
2018-07-30T21:44:11.643Z,91.30
2018-07-30T21:46:42.451Z,91.10
2018-07-30T21:49:12.263Z,91.20
2018-07-30T21:54:11.604Z,91.50
2018-07-30T21:56:41.320Z,91.90
2018-07-30T21:59:11.756Z,92.40
2018-07-30T22:01:41.600Z,92.20
2018-07-30T22:06:41.505Z,92.20
2018-07-30T22:09:11.324Z,92.70
2018-07-30T22:11:41.179Z,92.90
2018-07-30T22:14:11.004Z,93.40
2018-07-30T22:19:10.111Z,93.60
2018-07-30T22:21:39.913Z,93.90
2018-07-30T22:24:09.790Z,94.30
2018-07-30T22:26:39.820Z,94.00
2018-07-30T22:29:09.641Z,94.20
2018-07-30T22:31:39.623Z,94.40
2018-07-30T22:34:09.435Z,94.60
2018-07-30T22:36:43.902Z,94.90
2018-07-30T22:39:14.428Z,95.40
2018-07-30T22:41:44.303Z,96.00
2018-07-30T22:44:14.116Z,96.40
2018-07-30T22:46:43.939Z,97.30
2018-07-30T22:49:13.792Z,97.40
2018-07-30T22:51:45.225Z,97.60
2018-07-30T22:54:15.032Z,98.00
2018-07-30T22:56:44.872Z,97.10
2018-07-30T23:01:44.748Z,96.60
2018-07-30T23:04:14.593Z,96.60
2018-07-30T23:06:44.427Z,96.10
2018-07-30T23:09:14.215Z,95.20
2018-07-30T23:11:45.315Z,95.20
2018-07-30T23:14:15.096Z,96.10
2018-07-30T23:16:45.562Z,96.30
2018-07-30T23:19:16.360Z,95.50
2018-07-30T23:24:15.499Z,95.50
2018-07-30T23:26:45.305Z,95.60
2018-07-30T23:29:15.111Z,95.30
2018-07-30T23:31:44.971Z,95.80
2018-07-30T23:34:14.945Z,95.40
2018-07-30T23:36:44.803Z,95.20
2018-07-30T23:41:43.996Z,95.30
2018-07-30T23:44:14.277Z,94.80
2018-07-30T23:46:44.020Z,95.90
2018-07-30T23:49:13.832Z,95.40
2018-07-30T23:51:43.693Z,95.30
2018-07-30T23:54:13.474Z,96.30
2018-07-30T23:56:43.344Z,96.50
2018-07-30T23:59:13.283Z,96.70
